Terminal Aerodrome Forecast
Issued by NWS

Home | Current Version | Previous Version | Graphics & Text | Print | Product List | Glossary On
Versions: 1 2 3 4 5 6 7 8 9 10 11 12 13 14 15 16 17 18
000
FTUS43 KMPX 241724
TAFAXN
TAF
KAXN 241724Z 2418/2518 19013G22KT P6SM SCT050 SCT110
     FM250100 18009KT P6SM VCTS SCT050 BKN110CB
     FM250400 20008KT P6SM SCT050 SCT250
     FM251600 27011G20KT P6SM SCT050 SCT250=

USA.gov is the U.S. government's official web portal to all federal, state and local government web resources and services.